createdAt,value
2023-05-21T21:02:18.851Z,2.80
2023-05-21T21:04:49.232Z,3.17
2023-05-21T21:07:20.043Z,3.03
2023-05-21T21:09:49.265Z,3.13
2023-05-21T21:14:46.861Z,3.70
2023-05-21T21:17:14.146Z,4.00
2023-05-21T21:19:41.402Z,3.95
2023-05-21T21:22:08.783Z,3.30
2023-05-21T21:24:36.123Z,4.38
2023-05-21T21:27:03.496Z,3.45
2023-05-21T21:29:30.737Z,3.60
2023-05-21T21:31:58.045Z,4.53
2023-05-21T21:34:25.559Z,4.30
2023-05-21T21:39:21.237Z,4.40
2023-05-21T21:41:48.563Z,6.47
2023-05-21T21:44:16.011Z,7.75
2023-05-21T21:46:43.275Z,8.73
2023-05-21T21:49:10.675Z,8.98
2023-05-21T21:51:38.244Z,8.65
2023-05-21T21:56:32.684Z,7.80
2023-05-21T21:58:59.930Z,6.55
2023-05-21T22:01:27.629Z,4.18
2023-05-21T22:03:55.096Z,3.92
2023-05-21T22:06:22.482Z,2.97
2023-05-21T22:08:49.846Z,3.10
2023-05-21T22:11:17.433Z,3.13
2023-05-21T22:16:12.281Z,3.22
2023-05-21T22:18:42.106Z,3.13
2023-05-21T22:21:10.697Z,3.15
2023-05-21T22:23:38.791Z,2.58
2023-05-21T22:26:09.997Z,2.25
2023-05-21T22:28:37.371Z,2.00
2023-05-21T22:31:05.210Z,2.28
2023-05-21T22:33:32.581Z,2.00
2023-05-21T22:35:59.988Z,1.67
2023-05-21T22:38:27.272Z,1.75
2023-05-21T22:40:54.852Z,1.60
2023-05-21T22:45:49.251Z,1.50
2023-05-21T22:48:18.392Z,1.60
2023-05-21T22:50:46.441Z,1.90
2023-05-21T22:53:13.928Z,1.65
2023-05-21T22:55:41.215Z,1.60
2023-05-21T22:58:08.505Z,1.50
2023-05-21T23:00:35.963Z,1.30
2023-05-21T23:03:03.836Z,1.70
2023-05-21T23:05:31.316Z,1.58
2023-05-21T23:07:58.544Z,1.75
2023-05-21T23:10:25.797Z,1.52
2023-05-21T23:12:53.070Z,1.83
2023-05-21T23:15:21.822Z,1.67
2023-05-21T23:17:49.267Z,1.50
2023-05-21T23:20:16.646Z,1.75
2023-05-21T23:22:43.959Z,1.70
2023-05-21T23:25:11.246Z,1.60
2023-05-21T23:27:38.496Z,1.60
2023-05-21T23:30:06.599Z,1.85
2023-05-21T23:32:33.997Z,1.70
2023-05-21T23:35:01.907Z,1.55
2023-05-21T23:37:31.198Z,2.08
2023-05-21T23:39:58.519Z,1.40
2023-05-21T23:42:25.872Z,1.40
2023-05-21T23:44:53.195Z,1.60
2023-05-21T23:47:20.534Z,1.20
2023-05-21T23:49:47.754Z,1.38
2023-05-21T23:52:17.483Z,1.90
2023-05-21T23:54:44.987Z,1.50
2023-05-21T23:57:13.660Z,1.30
2023-05-21T23:59:41.093Z,1.30
